createdAt,value
2022-08-27T00:05:45.903Z,19.61
2022-08-27T00:15:47.696Z,19.61
2022-08-27T00:25:49.045Z,19.57
2022-08-27T00:35:50.792Z,19.52
2022-08-27T00:45:52.339Z,19.57
2022-08-27T00:55:53.737Z,19.61
2022-08-27T01:05:55.124Z,19.46
2022-08-27T01:15:59.150Z,19.34
2022-08-27T01:26:00.563Z,19.23
2022-08-27T01:36:01.923Z,19.15
2022-08-27T01:46:03.251Z,19.14
2022-08-27T01:56:04.925Z,19.00
2022-08-27T02:06:06.340Z,18.92
2022-08-27T02:16:07.711Z,18.96
2022-08-27T02:26:08.998Z,19.03
2022-08-27T02:36:10.312Z,19.09
2022-08-27T02:46:12.177Z,19.06
2022-08-27T02:56:13.580Z,19.22
2022-08-27T03:06:18.619Z,19.29
2022-08-27T03:16:20.048Z,19.34
2022-08-27T03:26:21.522Z,19.27
2022-08-27T03:36:22.835Z,19.35
2022-08-27T03:46:28.005Z,19.34
2022-08-27T03:56:29.392Z,19.46
2022-08-27T04:06:30.754Z,19.43
2022-08-27T04:16:32.128Z,19.45
2022-08-27T04:26:33.595Z,19.38
2022-08-27T04:36:35.030Z,19.30
2022-08-27T04:46:36.533Z,19.23
2022-08-27T04:56:38.073Z,19.44
2022-08-27T05:06:39.510Z,19.50
2022-08-27T05:16:41.071Z,19.31
2022-08-27T05:26:42.503Z,19.39
2022-08-27T05:36:48.578Z,19.35
2022-08-27T05:46:50.376Z,19.35
2022-08-27T05:56:51.725Z,19.51
2022-08-27T06:06:53.056Z,19.53
2022-08-27T06:16:54.394Z,19.63
2022-08-27T06:26:56.359Z,19.83
2022-08-27T06:36:57.703Z,19.88
2022-08-27T06:46:59.048Z,19.99
2022-08-27T06:57:00.683Z,20.20
2022-08-27T07:07:02.445Z,20.33
2022-08-27T07:17:03.875Z,20.23
2022-08-27T07:27:08.337Z,20.27
2022-08-27T07:37:09.625Z,20.20
2022-08-27T07:47:10.984Z,19.99
2022-08-27T07:57:12.312Z,20.04
2022-08-27T08:07:13.843Z,19.45
2022-08-27T08:17:15.318Z,19.08
2022-08-27T08:27:16.714Z,18.82
2022-08-27T08:37:18.039Z,18.16
2022-08-27T08:47:19.951Z,18.18
2022-08-27T08:57:21.340Z,18.30
2022-08-27T09:07:22.890Z,18.31
2022-08-27T09:17:24.274Z,18.32
2022-08-27T09:27:27.008Z,18.53
2022-08-27T09:37:34.186Z,18.38
2022-08-27T09:47:36.297Z,18.40
2022-08-27T09:57:37.787Z,18.41
2022-08-27T10:07:39.231Z,18.61
2022-08-27T10:17:40.806Z,18.58
2022-08-27T10:27:42.198Z,18.63
2022-08-27T10:37:43.474Z,18.66
2022-08-27T10:47:44.884Z,18.71
2022-08-27T10:57:58.737Z,18.79
2022-08-27T11:08:02.179Z,18.82
2022-08-27T11:18:04.003Z,18.75
2022-08-27T11:28:05.353Z,18.85
2022-08-27T11:38:06.853Z,18.84
2022-08-27T11:48:08.264Z,18.94
2022-08-27T11:58:09.990Z,19.02
2022-08-27T12:08:11.553Z,19.27
2022-08-27T12:18:13.031Z,19.45
2022-08-27T12:28:14.623Z,19.66
2022-08-27T12:38:16.092Z,19.79
2022-08-27T12:48:19.041Z,19.95
2022-08-27T12:58:20.408Z,20.25
2022-08-27T13:08:21.851Z,20.63
2022-08-27T13:18:23.212Z,21.08
2022-08-27T13:28:24.562Z,21.64
2022-08-27T13:38:26.104Z,21.83
2022-08-27T13:48:27.490Z,22.03
2022-08-27T13:58:28.832Z,22.39
2022-08-27T14:08:30.841Z,22.24
2022-08-27T14:18:55.433Z,22.26
2022-08-27T14:28:55.117Z,22.73
2022-08-27T14:38:56.468Z,23.06
2022-08-27T14:48:57.852Z,23.10
2022-08-27T14:58:59.146Z,23.30
2022-08-27T15:09:00.485Z,23.78
2022-08-27T15:19:02.966Z,23.57
2022-08-27T15:29:06.550Z,23.67
2022-08-27T15:39:08.259Z,23.60
2022-08-27T15:49:09.518Z,23.59
2022-08-27T15:59:10.904Z,23.48
2022-08-27T16:09:12.278Z,23.79
2022-08-27T16:19:16.552Z,23.89
2022-08-27T16:29:18.252Z,23.90
2022-08-27T16:39:19.598Z,23.89
2022-08-27T16:49:39.886Z,23.44
2022-08-27T16:59:41.296Z,23.11
2022-08-27T17:09:42.584Z,22.88
2022-08-27T17:19:43.937Z,22.66
2022-08-27T17:29:45.284Z,22.43
2022-08-27T17:39:46.651Z,22.30
2022-08-27T17:49:48.006Z,21.96
2022-08-27T17:59:49.365Z,21.64
2022-08-27T18:09:50.792Z,21.56
2022-08-27T18:19:52.174Z,21.19
2022-08-27T18:29:56.354Z,21.05
2022-08-27T18:39:57.937Z,20.90
2022-08-27T18:49:59.347Z,20.83
2022-08-27T19:00:00.694Z,20.77
2022-08-27T19:10:02.316Z,20.75
2022-08-27T19:20:03.645Z,20.56
2022-08-27T19:30:04.959Z,20.75
2022-08-27T19:40:06.453Z,20.57
2022-08-27T19:50:07.803Z,20.56
2022-08-27T20:00:09.275Z,20.56
2022-08-27T20:10:10.815Z,20.54
2022-08-27T20:20:12.346Z,20.47
2022-08-27T20:30:13.728Z,20.31
2022-08-27T20:40:15.223Z,20.25
2022-08-27T20:50:16.672Z,20.09
2022-08-27T21:00:21.295Z,20.05
2022-08-27T21:10:22.689Z,19.98
2022-08-27T21:20:24.038Z,19.88
2022-08-27T21:30:26.452Z,19.78
2022-08-27T21:40:28.428Z,19.65
2022-08-27T21:50:29.845Z,19.60
2022-08-27T22:00:35.859Z,19.42
2022-08-27T22:10:37.243Z,19.42
2022-08-27T22:20:38.641Z,19.16
2022-08-27T22:30:40.042Z,19.05
2022-08-27T22:40:41.574Z,18.97
2022-08-27T22:50:44.196Z,18.90
2022-08-27T23:00:50.832Z,18.81
2022-08-27T23:10:55.367Z,18.80
2022-08-27T23:20:56.745Z,18.62
2022-08-27T23:30:58.720Z,18.47
2022-08-27T23:41:00.157Z,18.37
2022-08-27T23:51:01.750Z,18.30
